sensor_id;sensor_type;location;lat;lon;timestamp;P1;durP1;ratioP1;P2;durP2;ratioP2
73015;SDS011;61893;50.074;14.440;2023-07-28T00:01:49;4.00;;;2.90;;
73015;SDS011;61893;50.074;14.440;2023-07-28T00:04:37;3.28;;;2.40;;
73015;SDS011;61893;50.074;14.440;2023-07-28T00:07:04;4.47;;;2.80;;
73015;SDS011;61893;50.074;14.440;2023-07-28T00:09:30;4.35;;;2.97;;
73015;SDS011;61893;50.074;14.440;2023-07-28T00:11:59;4.35;;;2.80;;
73015;SDS011;61893;50.074;14.440;2023-07-28T00:14:26;5.38;;;2.72;;
73015;SDS011;61893;50.074;14.440;2023-07-28T00:17:08;6.22;;;3.38;;
73015;SDS011;61893;50.074;14.440;2023-07-28T00:19:37;5.90;;;2.83;;
73015;SDS011;61893;50.074;14.440;2023-07-28T00:22:03;4.78;;;2.90;;
73015;SDS011;61893;50.074;14.440;2023-07-28T00:24:29;4.40;;;2.70;;
73015;SDS011;61893;50.074;14.440;2023-07-28T00:26:57;4.22;;;2.67;;
73015;SDS011;61893;50.074;14.440;2023-07-28T00:30:00;4.80;;;2.92;;
73015;SDS011;61893;50.074;14.440;2023-07-28T00:32:26;6.18;;;3.13;;
73015;SDS011;61893;50.074;14.440;2023-07-28T00:34:52;4.63;;;2.70;;
73015;SDS011;61893;50.074;14.440;2023-07-28T00:37:18;4.03;;;2.60;;
73015;SDS011;61893;50.074;14.440;2023-07-28T00:39:47;3.53;;;2.85;;
73015;SDS011;61893;50.074;14.440;2023-07-28T00:42:13;3.13;;;2.45;;
73015;SDS011;61893;50.074;14.440;2023-07-28T00:44:39;4.78;;;2.72;;
73015;SDS011;61893;50.074;14.440;2023-07-28T00:47:19;4.80;;;2.67;;
73015;SDS011;61893;50.074;14.440;2023-07-28T00:49:48;4.13;;;2.67;;
73015;SDS011;61893;50.074;14.440;2023-07-28T00:57:14;3.88;;;2.63;;
73015;SDS011;61893;50.074;14.440;2023-07-28T00:59:40;3.42;;;2.78;;
73015;SDS011;61893;50.074;14.440;2023-07-28T01:02:06;4.65;;;2.60;;
73015;SDS011;61893;50.074;14.440;2023-07-28T01:04:32;3.10;;;2.60;;
73015;SDS011;61893;50.074;14.440;2023-07-28T01:07:04;5.18;;;2.90;;
73015;SDS011;61893;50.074;14.440;2023-07-28T01:10:00;3.67;;;2.88;;
73015;SDS011;61893;50.074;14.440;2023-07-28T01:12:39;3.75;;;2.97;;
73015;SDS011;61893;50.074;14.440;2023-07-28T01:15:19;3.83;;;3.00;;
73015;SDS011;61893;50.074;14.440;2023-07-28T01:17:48;4.90;;;3.10;;
73015;SDS011;61893;50.074;14.440;2023-07-28T01:20:28;5.93;;;2.90;;
73015;SDS011;61893;50.074;14.440;2023-07-28T01:23:07;4.75;;;2.85;;
73015;SDS011;61893;50.074;14.440;2023-07-28T01:25:43;5.03;;;2.97;;
73015;SDS011;61893;50.074;14.440;2023-07-28T01:28:13;4.00;;;3.13;;
73015;SDS011;61893;50.074;14.440;2023-07-28T01:30:43;5.18;;;3.53;;
73015;SDS011;61893;50.074;14.440;2023-07-28T01:33:26;4.63;;;3.25;;
73015;SDS011;61893;50.074;14.440;2023-07-28T01:35:52;3.75;;;2.88;;
73015;SDS011;61893;50.074;14.440;2023-07-28T01:38:37;4.65;;;2.97;;
73015;SDS011;61893;50.074;14.440;2023-07-28T01:41:08;5.93;;;3.10;;
73015;SDS011;61893;50.074;14.440;2023-07-28T01:43:34;4.70;;;3.08;;
73015;SDS011;61893;50.074;14.440;2023-07-28T01:46:03;5.68;;;3.00;;
73015;SDS011;61893;50.074;14.440;2023-07-28T01:48:29;5.90;;;2.85;;
73015;SDS011;61893;50.074;14.440;2023-07-28T01:50:57;4.07;;;2.58;;
73015;SDS011;61893;50.074;14.440;2023-07-28T01:53:23;4.28;;;2.90;;
73015;SDS011;61893;50.074;14.440;2023-07-28T01:55:50;4.22;;;2.80;;
73015;SDS011;61893;50.074;14.440;2023-07-28T01:58:18;4.53;;;2.40;;
73015;SDS011;61893;50.074;14.440;2023-07-28T02:00:47;5.07;;;2.65;;
73015;SDS011;61893;50.074;14.440;2023-07-28T02:03:13;4.35;;;2.90;;
73015;SDS011;61893;50.074;14.440;2023-07-28T02:05:44;3.90;;;2.63;;
73015;SDS011;61893;50.074;14.440;2023-07-28T02:08:13;4.70;;;2.92;;
73015;SDS011;61893;50.074;14.440;2023-07-28T02:10:56;4.50;;;3.08;;
73015;SDS011;61893;50.074;14.440;2023-07-28T02:13:42;5.32;;;2.95;;
73015;SDS011;61893;50.074;14.440;2023-07-28T02:16:13;5.88;;;3.15;;
73015;SDS011;61893;50.074;14.440;2023-07-28T02:18:54;5.30;;;2.85;;
73015;SDS011;61893;50.074;14.440;2023-07-28T02:21:23;9.50;;;3.40;;
73015;SDS011;61893;50.074;14.440;2023-07-28T02:23:53;7.18;;;3.42;;
73015;SDS011;61893;50.074;14.440;2023-07-28T02:26:19;6.65;;;3.03;;
73015;SDS011;61893;50.074;14.440;2023-07-28T02:28:59;4.60;;;3.00;;
73015;SDS011;61893;50.074;14.440;2023-07-28T02:31:37;4.13;;;3.10;;
73015;SDS011;61893;50.074;14.440;2023-07-28T02:34:02;6.53;;;3.45;;
73015;SDS011;61893;50.074;14.440;2023-07-28T02:36:31;5.60;;;3.00;;
73015;SDS011;61893;50.074;14.440;2023-07-28T02:39:16;5.20;;;3.10;;
73015;SDS011;61893;50.074;14.440;2023-07-28T02:41:56;6.10;;;3.13;;
73015;SDS011;61893;50.074;14.440;2023-07-28T02:44:22;5.13;;;2.88;;
73015;SDS011;61893;50.074;14.440;2023-07-28T02:46:51;7.45;;;2.88;;
73015;SDS011;61893;50.074;14.440;2023-07-28T02:49:17;5.65;;;3.15;;
73015;SDS011;61893;50.074;14.440;2023-07-28T02:51:49;3.92;;;2.97;;
73015;SDS011;61893;50.074;14.440;2023-07-28T02:54:15;4.38;;;2.78;;
73015;SDS011;61893;50.074;14.440;2023-07-28T02:56:43;4.65;;;3.40;;
73015;SDS011;61893;50.074;14.440;2023-07-28T02:59:17;4.88;;;3.22;;
73015;SDS011;61893;50.074;14.440;2023-07-28T03:01:46;4.85;;;3.30;;
73015;SDS011;61893;50.074;14.440;2023-07-28T03:04:12;4.38;;;3.17;;
73015;SDS011;61893;50.074;14.440;2023-07-28T03:06:38;5.28;;;3.28;;
73015;SDS011;61893;50.074;14.440;2023-07-28T03:09:26;4.28;;;3.10;;
73015;SDS011;61893;50.074;14.440;2023-07-28T03:11:52;4.63;;;3.22;;
73015;SDS011;61893;50.074;14.440;2023-07-28T03:14:18;5.18;;;3.15;;
73015;SDS011;61893;50.074;14.440;2023-07-28T03:16:44;5.05;;;3.20;;
73015;SDS011;61893;50.074;14.440;2023-07-28T03:19:12;4.63;;;3.10;;
73015;SDS011;61893;50.074;14.440;2023-07-28T03:21:38;5.72;;;3.08;;
73015;SDS011;61893;50.074;14.440;2023-07-28T03:24:13;5.45;;;3.35;;
73015;SDS011;61893;50.074;14.440;2023-07-28T03:26:40;9.23;;;3.40;;
73015;SDS011;61893;50.074;14.440;2023-07-28T03:29:05;5.47;;;3.55;;
73015;SDS011;61893;50.074;14.440;2023-07-28T03:31:31;4.30;;;3.08;;
73015;SDS011;61893;50.074;14.440;2023-07-28T03:34:01;5.50;;;3.22;;
73015;SDS011;61893;50.074;14.440;2023-07-28T03:36:30;5.05;;;3.53;;
73015;SDS011;61893;50.074;14.440;2023-07-28T03:38:55;7.60;;;3.40;;
73015;SDS011;61893;50.074;14.440;2023-07-28T03:41:21;7.30;;;2.83;;
73015;SDS011;61893;50.074;14.440;2023-07-28T03:43:47;5.47;;;3.22;;
73015;SDS011;61893;50.074;14.440;2023-07-28T03:46:13;5.38;;;3.45;;
73015;SDS011;61893;50.074;14.440;2023-07-28T03:48:39;5.75;;;2.92;;
73015;SDS011;61893;50.074;14.440;2023-07-28T03:51:05;5.25;;;3.10;;
73015;SDS011;61893;50.074;14.440;2023-07-28T03:53:30;4.07;;;2.75;;
73015;SDS011;61893;50.074;14.440;2023-07-28T03:55:56;6.80;;;3.30;;
73015;SDS011;61893;50.074;14.440;2023-07-28T03:58:24;8.32;;;3.20;;
73015;SDS011;61893;50.074;14.440;2023-07-28T04:00:51;6.35;;;3.00;;
73015;SDS011;61893;50.074;14.440;2023-07-28T04:03:18;4.25;;;3.17;;
73015;SDS011;61893;50.074;14.440;2023-07-28T04:05:55;5.32;;;3.03;;
73015;SDS011;61893;50.074;14.440;2023-07-28T04:08:24;5.55;;;3.45;;
73015;SDS011;61893;50.074;14.440;2023-07-28T04:10:50;8.50;;;3.30;;
73015;SDS011;61893;50.074;14.440;2023-07-28T04:13:15;7.38;;;3.45;;
73015;SDS011;61893;50.074;14.440;2023-07-28T04:15:44;4.95;;;3.15;;
73015;SDS011;61893;50.074;14.440;2023-07-28T04:18:09;4.28;;;3.05;;
73015;SDS011;61893;50.074;14.440;2023-07-28T04:20:35;5.55;;;3.28;;
73015;SDS011;61893;50.074;14.440;2023-07-28T04:23:07;4.68;;;3.42;;
73015;SDS011;61893;50.074;14.440;2023-07-28T04:25:32;4.82;;;2.80;;
73015;SDS011;61893;50.074;14.440;2023-07-28T04:28:17;4.85;;;2.88;;
73015;SDS011;61893;50.074;14.440;2023-07-28T04:30:43;4.40;;;2.92;;
73015;SDS011;61893;50.074;14.440;2023-07-28T04:33:29;4.53;;;2.88;;
73015;SDS011;61893;50.074;14.440;2023-07-28T04:36:02;4.38;;;2.88;;
73015;SDS011;61893;50.074;14.440;2023-07-28T04:38:28;4.38;;;2.58;;
73015;SDS011;61893;50.074;14.440;2023-07-28T04:40:56;3.97;;;2.85;;
73015;SDS011;61893;50.074;14.440;2023-07-28T04:43:21;4.05;;;2.88;;
73015;SDS011;61893;50.074;14.440;2023-07-28T04:45:48;4.65;;;2.90;;
73015;SDS011;61893;50.074;14.440;2023-07-28T04:48:34;5.10;;;2.63;;
73015;SDS011;61893;50.074;14.440;2023-07-28T04:51:03;4.78;;;2.53;;
73015;SDS011;61893;50.074;14.440;2023-07-28T04:53:28;3.22;;;2.60;;
73015;SDS011;61893;50.074;14.440;2023-07-28T04:55:55;4.32;;;2.45;;
73015;SDS011;61893;50.074;14.440;2023-07-28T04:58:23;3.95;;;2.50;;
73015;SDS011;61893;50.074;14.440;2023-07-28T05:00:52;4.60;;;2.40;;
73015;SDS011;61893;50.074;14.440;2023-07-28T05:03:21;3.08;;;2.28;;
73015;SDS011;61893;50.074;14.440;2023-07-28T05:05:47;3.33;;;2.33;;
73015;SDS011;61893;50.074;14.440;2023-07-28T05:08:13;3.30;;;2.25;;
73015;SDS011;61893;50.074;14.440;2023-07-28T05:11:02;4.60;;;2.47;;
73015;SDS011;61893;50.074;14.440;2023-07-28T05:13:47;4.15;;;2.10;;
73015;SDS011;61893;50.074;14.440;2023-07-28T05:16:13;4.07;;;1.98;;
73015;SDS011;61893;50.074;14.440;2023-07-28T05:18:38;3.88;;;2.50;;
73015;SDS011;61893;50.074;14.440;2023-07-28T05:21:13;4.90;;;2.30;;
73015;SDS011;61893;50.074;14.440;2023-07-28T05:23:42;2.88;;;2.10;;
73015;SDS011;61893;50.074;14.440;2023-07-28T05:26:17;5.03;;;1.83;;
73015;SDS011;61893;50.074;14.440;2023-07-28T05:28:50;2.70;;;2.05;;
73015;SDS011;61893;50.074;14.440;2023-07-28T05:31:27;3.00;;;2.22;;
73015;SDS011;61893;50.074;14.440;2023-07-28T05:33:52;3.05;;;1.92;;
73015;SDS011;61893;50.074;14.440;2023-07-28T05:36:36;3.75;;;1.70;;
73015;SDS011;61893;50.074;14.440;2023-07-28T05:39:10;5.40;;;2.08;;
73015;SDS011;61893;50.074;14.440;2023-07-28T05:41:38;4.57;;;2.00;;
73015;SDS011;61893;50.074;14.440;2023-07-28T05:44:07;3.50;;;1.95;;
73015;SDS011;61893;50.074;14.440;2023-07-28T05:46:33;5.40;;;1.88;;
73015;SDS011;61893;50.074;14.440;2023-07-28T05:49:05;2.50;;;1.88;;
73015;SDS011;61893;50.074;14.440;2023-07-28T05:51:46;2.92;;;2.00;;
73015;SDS011;61893;50.074;14.440;2023-07-28T05:54:12;5.03;;;1.98;;
73015;SDS011;61893;50.074;14.440;2023-07-28T05:56:40;5.40;;;1.90;;
73015;SDS011;61893;50.074;14.440;2023-07-28T05:59:12;3.33;;;1.90;;
73015;SDS011;61893;50.074;14.440;2023-07-28T06:01:47;2.00;;;1.80;;
73015;SDS011;61893;50.074;14.440;2023-07-28T06:04:33;4.47;;;1.98;;
73015;SDS011;61893;50.074;14.440;2023-07-28T06:07:02;2.28;;;1.88;;
73015;SDS011;61893;50.074;14.440;2023-07-28T06:09:28;2.72;;;1.70;;
73015;SDS011;61893;50.074;14.440;2023-07-28T06:11:54;3.55;;;1.60;;
73015;SDS011;61893;50.074;14.440;2023-07-28T06:14:20;3.05;;;1.70;;
73015;SDS011;61893;50.074;14.440;2023-07-28T06:17:06;2.88;;;1.85;;
73015;SDS011;61893;50.074;14.440;2023-07-28T06:19:39;3.33;;;1.70;;
73015;SDS011;61893;50.074;14.440;2023-07-28T06:22:05;4.80;;;1.40;;
73015;SDS011;61893;50.074;14.440;2023-07-28T06:24:47;2.58;;;1.75;;
73015;SDS011;61893;50.074;14.440;2023-07-28T06:27:13;1.80;;;1.45;;
73015;SDS011;61893;50.074;14.440;2023-07-28T06:29:39;2.40;;;1.52;;
73015;SDS011;61893;50.074;14.440;2023-07-28T06:32:05;2.05;;;1.58;;
73015;SDS011;61893;50.074;14.440;2023-07-28T06:34:31;1.60;;;1.50;;
73015;SDS011;61893;50.074;14.440;2023-07-28T06:36:59;3.80;;;1.50;;
73015;SDS011;61893;50.074;14.440;2023-07-28T06:39:28;4.35;;;1.85;;
73015;SDS011;61893;50.074;14.440;2023-07-28T06:42:22;5.10;;;1.80;;
73015;SDS011;61893;50.074;14.440;2023-07-28T06:45:07;1.63;;;1.33;;
73015;SDS011;61893;50.074;14.440;2023-07-28T06:47:33;2.10;;;1.48;;
73015;SDS011;61893;50.074;14.440;2023-07-28T06:50:01;2.90;;;1.25;;
73015;SDS011;61893;50.074;14.440;2023-07-28T06:52:27;2.53;;;1.27;;
73015;SDS011;61893;50.074;14.440;2023-07-28T06:54:53;1.17;;;0.88;;
73015;SDS011;61893;50.074;14.440;2023-07-28T06:57:20;1.75;;;1.10;;
73015;SDS011;61893;50.074;14.440;2023-07-28T07:00:09;2.28;;;1.15;;
73015;SDS011;61893;50.074;14.440;2023-07-28T07:02:37;4.28;;;1.27;;
73015;SDS011;61893;50.074;14.440;2023-07-28T07:05:04;2.10;;;1.10;;
73015;SDS011;61893;50.074;14.440;2023-07-28T07:07:30;1.92;;;1.05;;
73015;SDS011;61893;50.074;14.440;2023-07-28T07:10:22;2.35;;;1.00;;
73015;SDS011;61893;50.074;14.440;2023-07-28T07:14:12;13.27;;;1.25;;
73015;SDS011;61893;50.074;14.440;2023-07-28T07:17:23;2.47;;;0.80;;
73015;SDS011;61893;50.074;14.440;2023-07-28T07:20:13;2.72;;;0.90;;
73015;SDS011;61893;50.074;14.440;2023-07-28T07:22:41;2.20;;;0.93;;
73015;SDS011;61893;50.074;14.440;2023-07-28T07:25:45;1.20;;;0.95;;
73015;SDS011;61893;50.074;14.440;2023-07-28T07:28:41;2.65;;;1.10;;
73015;SDS011;61893;50.074;14.440;2023-07-28T07:32:53;2.40;;;0.70;;
73015;SDS011;61893;50.074;14.440;2023-07-28T07:36:45;1.33;;;0.90;;
73015;SDS011;61893;50.074;14.440;2023-07-28T07:40:59;0.93;;;0.70;;
73015;SDS011;61893;50.074;14.440;2023-07-28T07:44:38;1.25;;;0.80;;
73015;SDS011;61893;50.074;14.440;2023-07-28T07:47:45;3.33;;;0.90;;
73015;SDS011;61893;50.074;14.440;2023-07-28T07:51:59;3.40;;;1.02;;
73015;SDS011;61893;50.074;14.440;2023-07-28T07:55:14;2.22;;;0.80;;
73015;SDS011;61893;50.074;14.440;2023-07-28T07:58:21;1.92;;;1.00;;
73015;SDS011;61893;50.074;14.440;2023-07-28T08:01:34;1.05;;;0.80;;
73015;SDS011;61893;50.074;14.440;2023-07-28T08:05:16;1.20;;;0.80;;
73015;SDS011;61893;50.074;14.440;2023-07-28T08:08:52;1.25;;;0.73;;
73015;SDS011;61893;50.074;14.440;2023-07-28T08:13:22;3.83;;;0.70;;
73015;SDS011;61893;50.074;14.440;2023-07-28T08:16:38;0.98;;;0.68;;
73015;SDS011;61893;50.074;14.440;2023-07-28T08:19:34;0.82;;;0.60;;
73015;SDS011;61893;50.074;14.440;2023-07-28T08:22:21;0.88;;;0.50;;
73015;SDS011;61893;50.074;14.440;2023-07-28T08:26:01;0.77;;;0.60;;
73015;SDS011;61893;50.074;14.440;2023-07-28T08:28:55;3.40;;;0.90;;
73015;SDS011;61893;50.074;14.440;2023-07-28T08:31:53;2.15;;;0.70;;
73015;SDS011;61893;50.074;14.440;2023-07-28T08:35:07;2.70;;;0.80;;
73015;SDS011;61893;50.074;14.440;2023-07-28T08:38:45;1.90;;;0.70;;
73015;SDS011;61893;50.074;14.440;2023-07-28T08:41:35;1.40;;;0.80;;
73015;SDS011;61893;50.074;14.440;2023-07-28T08:44:24;1.58;;;0.75;;
73015;SDS011;61893;50.074;14.440;2023-07-28T08:46:50;1.00;;;0.80;;
73015;SDS011;61893;50.074;14.440;2023-07-28T08:50:10;1.75;;;0.80;;
73015;SDS011;61893;50.074;14.440;2023-07-28T08:52:58;2.42;;;0.80;;
73015;SDS011;61893;50.074;14.440;2023-07-28T08:55:40;2.28;;;0.95;;
73015;SDS011;61893;50.074;14.440;2023-07-28T08:58:38;2.00;;;0.90;;
73015;SDS011;61893;50.074;14.440;2023-07-28T09:01:22;4.03;;;0.88;;
73015;SDS011;61893;50.074;14.440;2023-07-28T09:04:09;4.93;;;1.08;;
73015;SDS011;61893;50.074;14.440;2023-07-28T09:06:48;1.75;;;1.17;;
73015;SDS011;61893;50.074;14.440;2023-07-28T09:09:20;1.55;;;1.13;;
73015;SDS011;61893;50.074;14.440;2023-07-28T09:13:04;3.45;;;1.02;;
73015;SDS011;61893;50.074;14.440;2023-07-28T09:17:13;3.58;;;1.35;;
73015;SDS011;61893;50.074;14.440;2023-07-28T09:20:17;1.95;;;0.90;;
73015;SDS011;61893;50.074;14.440;2023-07-28T09:24:06;0.88;;;0.80;;
73015;SDS011;61893;50.074;14.440;2023-07-28T09:28:01;1.23;;;0.80;;
73015;SDS011;61893;50.074;14.440;2023-07-28T09:30:42;2.05;;;0.90;;
73015;SDS011;61893;50.074;14.440;2023-07-28T09:33:31;3.85;;;1.23;;
73015;SDS011;61893;50.074;14.440;2023-07-28T09:36:13;4.35;;;0.90;;
73015;SDS011;61893;50.074;14.440;2023-07-28T09:38:43;4.38;;;2.03;;
73015;SDS011;61893;50.074;14.440;2023-07-28T09:41:37;2.60;;;0.90;;
73015;SDS011;61893;50.074;14.440;2023-07-28T09:44:06;1.70;;;0.98;;
73015;SDS011;61893;50.074;14.440;2023-07-28T09:46:54;1.40;;;0.88;;
73015;SDS011;61893;50.074;14.440;2023-07-28T09:49:36;1.50;;;1.00;;
73015;SDS011;61893;50.074;14.440;2023-07-28T09:52:05;1.88;;;1.00;;
73015;SDS011;61893;50.074;14.440;2023-07-28T09:55:08;2.10;;;0.98;;
73015;SDS011;61893;50.074;14.440;2023-07-28T09:57:58;1.42;;;1.30;;
73015;SDS011;61893;50.074;14.440;2023-07-28T10:00:46;2.25;;;1.10;;
73015;SDS011;61893;50.074;14.440;2023-07-28T10:03:27;2.22;;;1.05;;
73015;SDS011;61893;50.074;14.440;2023-07-28T10:06:13;1.45;;;0.90;;
73015;SDS011;61893;50.074;14.440;2023-07-28T10:08:52;2.85;;;1.00;;
73015;SDS011;61893;50.074;14.440;2023-07-28T10:11:40;1.48;;;0.80;;
73015;SDS011;61893;50.074;14.440;2023-07-28T10:15:58;2.35;;;0.85;;
73015;SDS011;61893;50.074;14.440;2023-07-28T10:19:40;1.10;;;0.93;;
73015;SDS011;61893;50.074;14.440;2023-07-28T10:22:48;3.40;;;1.27;;
73015;SDS011;61893;50.074;14.440;2023-07-28T10:25:24;2.38;;;1.05;;
73015;SDS011;61893;50.074;14.440;2023-07-28T10:32:04;2.80;;;1.00;;
73015;SDS011;61893;50.074;14.440;2023-07-28T10:34:34;2.92;;;0.88;;
73015;SDS011;61893;50.074;14.440;2023-07-28T10:37:02;3.63;;;1.00;;
73015;SDS011;61893;50.074;14.440;2023-07-28T10:40:37;5.25;;;0.95;;
73015;SDS011;61893;50.074;14.440;2023-07-28T10:43:20;1.02;;;0.90;;
73015;SDS011;61893;50.074;14.440;2023-07-28T10:46:51;1.33;;;0.80;;
73015;SDS011;61893;50.074;14.440;2023-07-28T10:49:27;1.10;;;1.00;;
73015;SDS011;61893;50.074;14.440;2023-07-28T10:52:26;1.88;;;0.70;;
73015;SDS011;61893;50.074;14.440;2023-07-28T10:56:04;1.05;;;0.65;;
73015;SDS011;61893;50.074;14.440;2023-07-28T10:59:00;1.60;;;0.60;;
73015;SDS011;61893;50.074;14.440;2023-07-28T11:01:58;2.40;;;0.90;;
73015;SDS011;61893;50.074;14.440;2023-07-28T11:04:47;1.70;;;0.80;;
73015;SDS011;61893;50.074;14.440;2023-07-28T11:07:47;4.10;;;0.73;;
73015;SDS011;61893;50.074;14.440;2023-07-28T11:11:40;2.88;;;0.88;;
73015;SDS011;61893;50.074;14.440;2023-07-28T11:14:16;2.15;;;0.90;;
73015;SDS011;61893;50.074;14.440;2023-07-28T11:17:46;2.58;;;0.90;;
73015;SDS011;61893;50.074;14.440;2023-07-28T11:21:09;1.70;;;0.80;;
73015;SDS011;61893;50.074;14.440;2023-07-28T11:25:27;2.13;;;1.27;;
73015;SDS011;61893;50.074;14.440;2023-07-28T11:29:18;1.05;;;0.65;;
73015;SDS011;61893;50.074;14.440;2023-07-28T11:32:30;1.20;;;0.65;;
73015;SDS011;61893;50.074;14.440;2023-07-28T11:35:47;1.25;;;0.70;;
73015;SDS011;61893;50.074;14.440;2023-07-28T11:41:41;5.07;;;0.70;;
73015;SDS011;61893;50.074;14.440;2023-07-28T11:45:03;46.60;;;4.28;;
73015;SDS011;61893;50.074;14.440;2023-07-28T11:48:05;6.57;;;0.90;;
73015;SDS011;61893;50.074;14.440;2023-07-28T11:50:42;3.33;;;0.80;;
73015;SDS011;61893;50.074;14.440;2023-07-28T11:53:12;2.58;;;0.80;;
73015;SDS011;61893;50.074;14.440;2023-07-28T11:58:13;2.13;;;0.70;;
73015;SDS011;61893;50.074;14.440;2023-07-28T12:01:01;0.73;;;0.50;;
73015;SDS011;61893;50.074;14.440;2023-07-28T12:04:40;0.70;;;0.60;;
73015;SDS011;61893;50.074;14.440;2023-07-28T12:08:48;0.70;;;0.57;;
73015;SDS011;61893;50.074;14.440;2023-07-28T12:12:01;1.80;;;0.68;;
73015;SDS011;61893;50.074;14.440;2023-07-28T12:18:29;3.05;;;0.88;;
73015;SDS011;61893;50.074;14.440;2023-07-28T12:20:57;0.85;;;0.40;;
73015;SDS011;61893;50.074;14.440;2023-07-28T12:23:27;0.60;;;0.60;;
73015;SDS011;61893;50.074;14.440;2023-07-28T12:25:58;2.20;;;0.55;;
73015;SDS011;61893;50.074;14.440;2023-07-28T12:28:25;1.02;;;0.50;;
73015;SDS011;61893;50.074;14.440;2023-07-28T12:30:51;2.33;;;0.60;;
73015;SDS011;61893;50.074;14.440;2023-07-28T12:33:21;0.65;;;0.50;;
73015;SDS011;61893;50.074;14.440;2023-07-28T12:35:48;0.98;;;0.70;;
73015;SDS011;61893;50.074;14.440;2023-07-28T12:38:14;1.95;;;0.57;;
73015;SDS011;61893;50.074;14.440;2023-07-28T12:40:46;2.05;;;0.60;;
73015;SDS011;61893;50.074;14.440;2023-07-28T12:43:16;2.50;;;0.60;;
73015;SDS011;61893;50.074;14.440;2023-07-28T12:45:45;1.23;;;0.90;;
73015;SDS011;61893;50.074;14.440;2023-07-28T12:49:02;2.55;;;1.00;;
73015;SDS011;61893;50.074;14.440;2023-07-28T12:52:00;3.40;;;0.65;;
73015;SDS011;61893;50.074;14.440;2023-07-28T12:55:31;2.15;;;0.90;;
73015;SDS011;61893;50.074;14.440;2023-07-28T12:58:08;1.63;;;0.68;;
73015;SDS011;61893;50.074;14.440;2023-07-28T13:03:28;1.02;;;0.50;;
73015;SDS011;61893;50.074;14.440;2023-07-28T13:06:10;0.85;;;0.57;;
73015;SDS011;61893;50.074;14.440;2023-07-28T13:10:01;0.85;;;0.50;;
73015;SDS011;61893;50.074;14.440;2023-07-28T13:13:23;0.63;;;0.40;;
73015;SDS011;61893;50.074;14.440;2023-07-28T13:16:22;1.83;;;0.50;;
73015;SDS011;61893;50.074;14.440;2023-07-28T13:19:38;2.40;;;0.70;;
73015;SDS011;61893;50.074;14.440;2023-07-28T13:22:48;0.65;;;0.50;;
73015;SDS011;61893;50.074;14.440;2023-07-28T13:26:18;0.90;;;0.47;;
73015;SDS011;61893;50.074;14.440;2023-07-28T13:28:44;2.30;;;0.60;;
73015;SDS011;61893;50.074;14.440;2023-07-28T13:31:28;2.97;;;0.82;;
73015;SDS011;61893;50.074;14.440;2023-07-28T13:33:59;2.05;;;0.45;;
73015;SDS011;61893;50.074;14.440;2023-07-28T13:36:30;1.77;;;0.57;;
73015;SDS011;61893;50.074;14.440;2023-07-28T13:38:57;1.02;;;0.50;;
73015;SDS011;61893;50.074;14.440;2023-07-28T13:41:23;0.60;;;0.60;;
73015;SDS011;61893;50.074;14.440;2023-07-28T13:44:06;0.90;;;0.60;;
73015;SDS011;61893;50.074;14.440;2023-07-28T13:46:47;1.13;;;0.75;;
73015;SDS011;61893;50.074;14.440;2023-07-28T13:49:14;1.10;;;0.70;;
73015;SDS011;61893;50.074;14.440;2023-07-28T13:52:01;0.47;;;0.47;;
73015;SDS011;61893;50.074;14.440;2023-07-28T13:54:30;1.00;;;0.60;;
73015;SDS011;61893;50.074;14.440;2023-07-28T13:57:11;1.15;;;0.63;;
73015;SDS011;61893;50.074;14.440;2023-07-28T13:59:59;0.80;;;0.70;;
73015;SDS011;61893;50.074;14.440;2023-07-28T14:02:25;1.88;;;0.70;;
73015;SDS011;61893;50.074;14.440;2023-07-28T14:05:06;1.33;;;0.70;;
73015;SDS011;61893;50.074;14.440;2023-07-28T14:07:48;0.60;;;0.50;;
73015;SDS011;61893;50.074;14.440;2023-07-28T14:10:18;1.83;;;0.60;;
73015;SDS011;61893;50.074;14.440;2023-07-28T14:14:02;1.35;;;0.52;;
73015;SDS011;61893;50.074;14.440;2023-07-28T14:17:29;1.00;;;0.60;;
73015;SDS011;61893;50.074;14.440;2023-07-28T14:20:35;1.65;;;0.80;;
73015;SDS011;61893;50.074;14.440;2023-07-28T14:23:47;1.13;;;0.60;;
73015;SDS011;61893;50.074;14.440;2023-07-28T14:28:07;0.73;;;0.60;;
73015;SDS011;61893;50.074;14.440;2023-07-28T14:32:00;1.00;;;0.70;;
73015;SDS011;61893;50.074;14.440;2023-07-28T14:34:41;1.92;;;0.50;;
73015;SDS011;61893;50.074;14.440;2023-07-28T14:37:08;1.25;;;0.90;;
73015;SDS011;61893;50.074;14.440;2023-07-28T14:39:49;0.55;;;0.55;;
73015;SDS011;61893;50.074;14.440;2023-07-28T14:42:57;1.83;;;0.70;;
73015;SDS011;61893;50.074;14.440;2023-07-28T14:45:38;0.75;;;0.50;;
73015;SDS011;61893;50.074;14.440;2023-07-28T14:49:34;1.58;;;0.75;;
73015;SDS011;61893;50.074;14.440;2023-07-28T14:53:33;1.00;;;0.68;;
73015;SDS011;61893;50.074;14.440;2023-07-28T14:57:06;1.00;;;0.60;;
73015;SDS011;61893;50.074;14.440;2023-07-28T15:00:58;1.05;;;0.70;;
73015;SDS011;61893;50.074;14.440;2023-07-28T15:05:20;0.75;;;0.60;;
73015;SDS011;61893;50.074;14.440;2023-07-28T15:10:08;1.10;;;0.60;;
73015;SDS011;61893;50.074;14.440;2023-07-28T15:14:02;1.50;;;0.70;;
73015;SDS011;61893;50.074;14.440;2023-07-28T15:18:06;3.60;;;0.70;;
73015;SDS011;61893;50.074;14.440;2023-07-28T15:21:49;0.40;;;0.40;;
73015;SDS011;61893;50.074;14.440;2023-07-28T15:25:57;3.83;;;0.50;;
73015;SDS011;61893;50.074;14.440;2023-07-28T15:29:42;0.82;;;0.55;;
73015;SDS011;61893;50.074;14.440;2023-07-28T15:33:39;1.13;;;0.80;;
73015;SDS011;61893;50.074;14.440;2023-07-28T15:36:35;1.13;;;0.73;;
73015;SDS011;61893;50.074;14.440;2023-07-28T15:39:43;0.88;;;0.63;;
73015;SDS011;61893;50.074;14.440;2023-07-28T15:42:46;2.50;;;0.80;;
73015;SDS011;61893;50.074;14.440;2023-07-28T15:50:07;0.73;;;0.60;;
73015;SDS011;61893;50.074;14.440;2023-07-28T15:54:11;0.55;;;0.50;;
73015;SDS011;61893;50.074;14.440;2023-07-28T15:57:08;0.80;;;0.63;;
73015;SDS011;61893;50.074;14.440;2023-07-28T15:59:51;1.10;;;0.70;;
73015;SDS011;61893;50.074;14.440;2023-07-28T16:03:20;0.75;;;0.68;;
73015;SDS011;61893;50.074;14.440;2023-07-28T16:06:09;2.25;;;0.70;;
73015;SDS011;61893;50.074;14.440;2023-07-28T16:09:01;0.85;;;0.75;;
73015;SDS011;61893;50.074;14.440;2023-07-28T16:12:01;1.35;;;0.70;;
73015;SDS011;61893;50.074;14.440;2023-07-28T16:14:36;1.58;;;0.80;;
73015;SDS011;61893;50.074;14.440;2023-07-28T16:17:04;0.60;;;0.50;;
73015;SDS011;61893;50.074;14.440;2023-07-28T16:19:31;1.13;;;0.80;;
73015;SDS011;61893;50.074;14.440;2023-07-28T16:21:57;0.65;;;0.55;;
73015;SDS011;61893;50.074;14.440;2023-07-28T16:24:24;2.45;;;1.00;;
73015;SDS011;61893;50.074;14.440;2023-07-28T16:26:52;1.33;;;0.70;;
73015;SDS011;61893;50.074;14.440;2023-07-28T16:29:20;1.23;;;0.60;;
73015;SDS011;61893;50.074;14.440;2023-07-28T16:31:46;0.77;;;0.70;;
73015;SDS011;61893;50.074;14.440;2023-07-28T16:34:13;3.03;;;0.88;;
73015;SDS011;61893;50.074;14.440;2023-07-28T16:36:40;1.40;;;0.63;;
73015;SDS011;61893;50.074;14.440;2023-07-28T16:39:15;0.98;;;0.70;;
73015;SDS011;61893;50.074;14.440;2023-07-28T16:41:49;0.80;;;0.70;;
73015;SDS011;61893;50.074;14.440;2023-07-28T16:45:25;0.75;;;0.60;;
73015;SDS011;61893;50.074;14.440;2023-07-28T16:48:40;0.90;;;0.63;;
73015;SDS011;61893;50.074;14.440;2023-07-28T16:51:47;1.13;;;0.80;;
73015;SDS011;61893;50.074;14.440;2023-07-28T16:54:17;1.85;;;0.93;;
73015;SDS011;61893;50.074;14.440;2023-07-28T16:56:43;0.90;;;0.60;;
73015;SDS011;61893;50.074;14.440;2023-07-28T16:59:14;1.58;;;0.90;;
73015;SDS011;61893;50.074;14.440;2023-07-28T17:01:42;1.25;;;0.85;;